createdAt,value
2019-03-30T00:01:15.685Z,77.85
2019-03-30T00:03:47.180Z,77.80
2019-03-30T00:06:18.325Z,77.63
2019-03-30T00:08:49.763Z,77.86
2019-03-30T00:11:20.845Z,77.70
2019-03-30T00:13:52.009Z,77.63
2019-03-30T00:16:23.154Z,77.77
2019-03-30T00:18:54.476Z,77.72
2019-03-30T00:21:26.709Z,77.97
2019-03-30T00:23:57.456Z,78.04
2019-03-30T00:26:28.711Z,78.21
2019-03-30T00:29:00.083Z,77.93
2019-03-30T00:31:31.428Z,78.26
2019-03-30T00:34:02.327Z,78.64
2019-03-30T00:36:34.498Z,78.74
2019-03-30T00:39:07.857Z,78.57
2019-03-30T00:41:49.993Z,78.29
2019-03-30T00:44:23.065Z,78.69
2019-03-30T00:46:55.649Z,78.48
2019-03-30T00:49:28.426Z,78.48
2019-03-30T00:52:01.686Z,78.54
2019-03-30T00:54:34.471Z,78.48
2019-03-30T00:57:06.795Z,78.65
2019-03-30T00:59:39.864Z,79.04
2019-03-30T01:02:11.952Z,79.26
2019-03-30T01:04:44.985Z,79.50
2019-03-30T01:07:16.274Z,79.46
2019-03-30T01:09:49.286Z,79.28
2019-03-30T01:12:22.430Z,79.48
2019-03-30T01:14:54.873Z,79.04
2019-03-30T01:17:27.411Z,78.94
2019-03-30T01:20:03.120Z,78.96
2019-03-30T01:22:33.066Z,79.34
2019-03-30T01:25:07.483Z,79.67
2019-03-30T01:27:40.787Z,79.71
2019-03-30T01:30:22.970Z,79.72
2019-03-30T01:32:48.090Z,79.82
2019-03-30T01:35:19.963Z,80.63
2019-03-30T01:38:02.810Z,80.05
2019-03-30T01:40:35.871Z,79.83
2019-03-30T01:43:17.461Z,80.04
2019-03-30T01:45:50.097Z,80.12
2019-03-30T01:48:23.754Z,79.73
2019-03-30T01:50:56.430Z,79.67
2019-03-30T01:53:30.409Z,79.63
2019-03-30T01:56:03.465Z,79.51
2019-03-30T01:58:35.194Z,79.47
2019-03-30T02:01:17.527Z,79.55
2019-03-30T02:03:50.478Z,79.76
2019-03-30T02:06:32.422Z,79.80
2019-03-30T02:09:05.957Z,80.01
2019-03-30T02:11:38.991Z,79.85
2019-03-30T02:14:20.658Z,79.92
2019-03-30T02:17:01.785Z,79.55
2019-03-30T02:19:43.215Z,80.16
2019-03-30T02:22:16.039Z,80.73
2019-03-30T02:24:47.224Z,80.40
2019-03-30T02:27:18.447Z,80.17
2019-03-30T02:29:50.708Z,79.74
2019-03-30T02:32:21.933Z,79.83
2019-03-30T02:34:54.230Z,80.27
2019-03-30T02:37:25.396Z,80.11
2019-03-30T02:39:57.663Z,80.14
2019-03-30T02:42:28.942Z,80.56
2019-03-30T02:45:00.381Z,80.57
2019-03-30T02:47:31.508Z,80.42
2019-03-30T02:50:02.834Z,80.38
2019-03-30T02:52:34.428Z,80.39
2019-03-30T02:55:07.309Z,80.81
2019-03-30T02:57:38.199Z,81.34
2019-03-30T03:00:10.823Z,81.05
2019-03-30T03:02:44.862Z,80.46
2019-03-30T03:05:15.907Z,80.48
2019-03-30T03:07:48.470Z,80.12
2019-03-30T03:10:19.966Z,80.49
2019-03-30T03:12:50.982Z,80.49
2019-03-30T03:15:21.869Z,80.45
2019-03-30T03:17:52.607Z,80.33
2019-03-30T03:20:23.848Z,80.21
2019-03-30T03:22:55.180Z,80.30
2019-03-30T03:25:26.184Z,80.28
2019-03-30T03:27:57.473Z,80.23
2019-03-30T03:30:28.589Z,80.53
2019-03-30T03:32:59.799Z,80.29
2019-03-30T03:35:30.987Z,79.82
2019-03-30T03:38:01.714Z,79.81
2019-03-30T03:40:32.400Z,79.95
2019-03-30T03:43:03.233Z,79.87
2019-03-30T03:45:34.472Z,80.07
2019-03-30T03:48:05.234Z,80.47
2019-03-30T03:50:38.302Z,80.49
2019-03-30T03:53:09.613Z,80.54
2019-03-30T03:55:41.364Z,80.33
2019-03-30T03:58:13.050Z,80.40
2019-03-30T04:00:43.833Z,80.62
2019-03-30T04:03:16.966Z,80.63
2019-03-30T04:05:48.354Z,81.21
2019-03-30T04:08:20.726Z,81.38
2019-03-30T04:10:52.129Z,81.22
2019-03-30T04:13:23.006Z,81.07
2019-03-30T04:15:54.047Z,81.32
2019-03-30T04:18:25.423Z,81.14
2019-03-30T04:20:56.950Z,80.98
2019-03-30T04:23:29.045Z,81.06
2019-03-30T04:26:00.196Z,80.60
2019-03-30T04:28:31.574Z,80.40
2019-03-30T04:31:03.181Z,80.83
2019-03-30T04:33:33.865Z,81.40
2019-03-30T04:36:05.750Z,81.14
2019-03-30T04:38:36.813Z,81.42
2019-03-30T04:41:07.645Z,81.76
2019-03-30T04:43:38.797Z,81.82
2019-03-30T04:46:09.752Z,81.97
2019-03-30T04:48:40.804Z,81.97
2019-03-30T04:51:12.332Z,81.71
2019-03-30T04:53:43.538Z,81.79
2019-03-30T04:56:14.765Z,81.84
2019-03-30T04:58:46.086Z,81.87
2019-03-30T05:01:17.720Z,81.94
2019-03-30T05:03:49.007Z,82.00
2019-03-30T05:06:20.370Z,81.50
2019-03-30T05:08:51.675Z,81.15
2019-03-30T05:11:22.648Z,81.16
2019-03-30T05:13:53.718Z,81.20
2019-03-30T05:16:24.857Z,82.08
2019-03-30T05:18:56.115Z,82.25
2019-03-30T05:21:27.227Z,82.72
2019-03-30T05:23:59.207Z,82.99
2019-03-30T05:26:31.072Z,83.02
2019-03-30T05:29:02.360Z,82.98
2019-03-30T05:31:33.635Z,82.80
2019-03-30T05:34:06.161Z,82.83
2019-03-30T05:36:37.076Z,82.72
2019-03-30T05:39:08.084Z,82.91
2019-03-30T05:41:39.106Z,82.74
2019-03-30T05:44:09.911Z,82.62
2019-03-30T05:46:41.098Z,82.49
2019-03-30T05:49:12.301Z,82.57
2019-03-30T05:51:43.425Z,82.71
2019-03-30T05:54:16.286Z,83.00
2019-03-30T05:56:47.526Z,83.30
2019-03-30T05:59:18.437Z,83.42
2019-03-30T06:01:49.428Z,83.80
2019-03-30T06:04:20.431Z,83.50
2019-03-30T06:06:51.874Z,83.93
2019-03-30T06:09:23.898Z,83.64
2019-03-30T06:11:54.858Z,83.36
2019-03-30T06:14:26.218Z,83.83
2019-03-30T06:16:57.261Z,84.62
2019-03-30T06:19:28.814Z,84.80
2019-03-30T06:21:59.931Z,85.41
2019-03-30T06:24:31.110Z,85.22
2019-03-30T06:27:03.407Z,85.57
2019-03-30T06:29:34.448Z,86.19
2019-03-30T06:32:05.329Z,86.41
2019-03-30T06:34:36.501Z,86.74
2019-03-30T06:37:08.356Z,87.09
2019-03-30T06:39:39.390Z,86.82
2019-03-30T06:42:14.831Z,87.67
2019-03-30T06:44:45.511Z,87.99
2019-03-30T06:47:19.591Z,88.61
2019-03-30T06:49:50.526Z,88.61
2019-03-30T06:52:21.950Z,88.60
2019-03-30T06:54:54.426Z,88.33
2019-03-30T06:57:26.068Z,88.11
2019-03-30T06:59:57.115Z,88.15
2019-03-30T07:02:29.402Z,88.36
2019-03-30T07:05:00.666Z,88.17
2019-03-30T07:07:32.385Z,88.46
2019-03-30T07:10:04.448Z,88.10
2019-03-30T07:12:38.667Z,87.70
2019-03-30T07:15:10.676Z,87.35
2019-03-30T07:17:46.629Z,86.35
2019-03-30T07:20:21.313Z,86.03
2019-03-30T07:22:53.266Z,85.31
2019-03-30T07:25:26.848Z,84.63
2019-03-30T07:28:03.545Z,84.22
2019-03-30T07:30:35.677Z,83.63
2019-03-30T07:33:06.801Z,83.16
2019-03-30T07:35:37.193Z,82.51
2019-03-30T07:38:08.571Z,82.10
2019-03-30T07:40:39.061Z,81.23
2019-03-30T07:43:10.530Z,79.76
2019-03-30T07:45:41.409Z,80.21
2019-03-30T07:48:13.322Z,78.74
2019-03-30T07:50:44.491Z,77.97
2019-03-30T07:53:26.337Z,78.04
2019-03-30T07:55:47.696Z,78.10
2019-03-30T07:58:19.968Z,77.37
2019-03-30T08:00:52.605Z,75.71
2019-03-30T08:03:23.293Z,76.67
2019-03-30T08:05:54.794Z,75.94
2019-03-30T08:08:26.056Z,76.55
2019-03-30T08:10:56.828Z,75.45
2019-03-30T08:13:27.905Z,74.14
2019-03-30T08:15:58.811Z,72.67
2019-03-30T08:18:31.587Z,73.13
2019-03-30T08:21:03.661Z,72.72
2019-03-30T08:23:40.282Z,72.58
2019-03-30T08:26:06.807Z,72.04
2019-03-30T08:28:37.674Z,71.78
2019-03-30T08:31:12.561Z,70.98
2019-03-30T08:33:45.460Z,70.16
2019-03-30T08:36:20.159Z,70.39
2019-03-30T08:38:54.130Z,70.39
2019-03-30T08:41:30.389Z,68.54
2019-03-30T08:44:03.794Z,67.47
2019-03-30T08:46:37.997Z,67.17
2019-03-30T08:49:10.804Z,67.47
2019-03-30T08:51:47.290Z,66.57
2019-03-30T08:54:21.593Z,66.31
2019-03-30T08:57:00.293Z,65.05
2019-03-30T08:59:36.084Z,65.16
2019-03-30T09:02:12.015Z,66.38
2019-03-30T09:04:46.779Z,64.87
2019-03-30T09:07:20.152Z,65.50
2019-03-30T09:09:54.024Z,63.38
2019-03-30T09:12:25.415Z,61.51
2019-03-30T09:14:57.067Z,62.48
2019-03-30T09:17:31.014Z,62.10
2019-03-30T09:20:02.346Z,61.17
2019-03-30T09:22:34.310Z,62.39
2019-03-30T09:25:05.709Z,61.01
2019-03-30T09:27:36.586Z,60.93
2019-03-30T09:30:08.767Z,61.96
2019-03-30T09:32:44.941Z,59.33
2019-03-30T09:35:20.146Z,60.33
2019-03-30T09:37:50.905Z,61.21
2019-03-30T09:40:21.700Z,58.33
2019-03-30T09:42:54.627Z,58.24
2019-03-30T09:45:27.277Z,59.56
2019-03-30T09:47:59.713Z,59.75
2019-03-30T09:50:31.196Z,59.17
2019-03-30T09:53:03.105Z,58.75
2019-03-30T09:55:34.793Z,57.93
2019-03-30T09:58:06.146Z,58.12
2019-03-30T10:00:37.036Z,57.89
2019-03-30T10:03:10.355Z,57.66
2019-03-30T10:05:42.395Z,57.26
2019-03-30T10:08:14.747Z,56.49
2019-03-30T10:10:46.286Z,58.46
2019-03-30T10:13:17.808Z,56.24
2019-03-30T10:15:49.222Z,56.82
2019-03-30T10:18:21.517Z,56.16
2019-03-30T10:20:52.625Z,55.54
2019-03-30T10:23:24.427Z,54.48
2019-03-30T10:25:55.865Z,55.21
2019-03-30T10:28:27.067Z,54.70
2019-03-30T10:30:58.547Z,55.56
2019-03-30T10:33:30.949Z,55.11
2019-03-30T10:36:03.078Z,55.32
2019-03-30T10:38:34.548Z,54.36
2019-03-30T10:41:06.105Z,53.90
2019-03-30T10:43:37.252Z,54.38
2019-03-30T10:46:09.703Z,53.89
2019-03-30T10:48:41.888Z,53.55
2019-03-30T10:51:13.168Z,53.52
2019-03-30T10:53:44.415Z,53.62
2019-03-30T10:56:15.916Z,54.42
2019-03-30T10:58:47.387Z,52.18
2019-03-30T11:01:20.938Z,52.76
2019-03-30T11:03:52.059Z,52.77
2019-03-30T11:06:23.058Z,53.31
2019-03-30T11:08:54.307Z,51.61
2019-03-30T11:11:25.665Z,52.02
2019-03-30T11:13:56.777Z,53.06
2019-03-30T11:16:28.088Z,50.76
2019-03-30T11:18:59.379Z,52.58
2019-03-30T11:21:31.084Z,50.95
2019-03-30T11:24:02.222Z,50.94
2019-03-30T11:26:33.820Z,51.57
2019-03-30T11:29:04.977Z,50.36
2019-03-30T11:31:36.874Z,50.00
2019-03-30T11:34:07.897Z,50.23
2019-03-30T11:36:39.417Z,48.54
2019-03-30T11:39:10.395Z,49.97
2019-03-30T11:41:41.377Z,49.24
2019-03-30T11:44:12.131Z,48.18
2019-03-30T11:46:42.810Z,48.77
2019-03-30T11:49:13.388Z,47.76
2019-03-30T11:51:44.402Z,48.05
2019-03-30T11:54:15.605Z,48.18
2019-03-30T11:56:48.198Z,47.22
2019-03-30T11:59:19.583Z,48.00
2019-03-30T12:01:50.954Z,47.91
2019-03-30T12:04:21.842Z,47.72
2019-03-30T12:06:53.042Z,48.86
2019-03-30T12:09:25.139Z,47.00
2019-03-30T12:11:56.460Z,47.47
2019-03-30T12:14:27.497Z,47.14
2019-03-30T12:16:58.366Z,47.26
2019-03-30T12:19:29.133Z,46.77
2019-03-30T12:22:00.015Z,46.58
2019-03-30T12:24:30.644Z,47.44
2019-03-30T12:27:01.202Z,46.02
2019-03-30T12:29:31.950Z,45.42
2019-03-30T12:32:02.625Z,45.67
2019-03-30T12:34:33.371Z,45.54
2019-03-30T12:37:04.004Z,46.33
2019-03-30T12:39:34.436Z,45.65
2019-03-30T12:42:05.404Z,45.03
2019-03-30T12:44:35.900Z,45.05
2019-03-30T12:47:06.323Z,45.50
2019-03-30T12:49:36.869Z,44.67
2019-03-30T12:52:07.569Z,44.46
2019-03-30T12:54:38.071Z,44.62
2019-03-30T12:57:08.524Z,44.14
2019-03-30T12:59:39.052Z,44.63
2019-03-30T13:02:09.684Z,43.38
2019-03-30T13:04:40.204Z,43.77
2019-03-30T13:07:10.691Z,44.19
2019-03-30T13:09:41.524Z,44.20
2019-03-30T13:12:12.044Z,43.84
2019-03-30T13:14:42.646Z,43.85
2019-03-30T13:17:13.198Z,44.02
2019-03-30T13:19:43.663Z,44.56
2019-03-30T13:22:14.685Z,43.41
2019-03-30T13:24:45.446Z,44.08
2019-03-30T13:27:16.964Z,45.18
2019-03-30T13:29:47.556Z,44.55
2019-03-30T13:32:18.444Z,43.95
2019-03-30T13:34:49.276Z,43.90
2019-03-30T13:37:20.125Z,43.66
2019-03-30T13:39:51.448Z,44.78
2019-03-30T13:42:22.165Z,43.97
2019-03-30T13:44:52.700Z,44.70
2019-03-30T13:47:23.397Z,45.46
2019-03-30T13:49:54.045Z,45.01
2019-03-30T13:52:24.596Z,45.12
2019-03-30T13:54:55.188Z,45.38
2019-03-30T13:57:25.868Z,45.11
2019-03-30T13:59:56.501Z,45.15
2019-03-30T14:02:28.064Z,47.03
2019-03-30T14:04:58.643Z,46.01
2019-03-30T14:07:29.324Z,45.53
2019-03-30T14:09:59.925Z,45.43
2019-03-30T14:12:30.780Z,45.25
2019-03-30T14:15:02.331Z,45.97
2019-03-30T14:17:33.164Z,45.61
2019-03-30T14:20:05.617Z,44.77
2019-03-30T14:22:37.422Z,46.28
2019-03-30T14:25:08.599Z,45.23
2019-03-30T14:27:40.177Z,45.81
2019-03-30T14:30:13.224Z,45.53
2019-03-30T14:32:44.541Z,44.49
2019-03-30T14:35:15.865Z,44.11
2019-03-30T14:37:46.994Z,44.35
2019-03-30T14:40:18.272Z,44.58
2019-03-30T14:42:49.981Z,44.72
2019-03-30T14:45:21.029Z,43.66
2019-03-30T14:47:52.148Z,44.39
2019-03-30T14:50:23.437Z,43.85
2019-03-30T14:52:54.357Z,44.01
2019-03-30T14:55:26.704Z,43.65
2019-03-30T14:57:59.178Z,42.44
2019-03-30T15:00:31.030Z,42.09
2019-03-30T15:03:02.841Z,41.93
2019-03-30T15:05:33.627Z,42.69
2019-03-30T15:08:04.397Z,42.23
2019-03-30T15:10:35.108Z,42.32
2019-03-30T15:13:06.343Z,42.24
2019-03-30T15:15:37.427Z,42.25
2019-03-30T15:18:08.336Z,42.52
2019-03-30T15:20:39.031Z,42.19
2019-03-30T15:23:09.796Z,42.09
2019-03-30T15:25:41.494Z,41.45
2019-03-30T15:28:13.087Z,41.83
2019-03-30T15:30:44.689Z,42.46
2019-03-30T15:33:15.730Z,41.88
2019-03-30T15:35:46.817Z,42.31
2019-03-30T15:38:17.527Z,42.39
2019-03-30T15:40:48.379Z,42.27
2019-03-30T15:43:19.529Z,42.84
2019-03-30T15:45:51.187Z,43.28
2019-03-30T15:48:22.202Z,43.24
2019-03-30T15:50:53.579Z,43.08
2019-03-30T15:53:26.626Z,42.02
2019-03-30T15:55:59.278Z,42.75
2019-03-30T15:58:31.444Z,42.27
2019-03-30T16:01:03.643Z,42.19
2019-03-30T16:03:36.981Z,42.32
2019-03-30T16:06:08.211Z,42.56
2019-03-30T16:08:39.096Z,42.73
2019-03-30T16:11:09.767Z,42.94
2019-03-30T16:13:40.291Z,43.16
2019-03-30T16:16:11.161Z,43.15
2019-03-30T16:18:42.327Z,42.82
2019-03-30T16:21:13.209Z,43.55
2019-03-30T16:23:44.583Z,43.78
2019-03-30T16:26:15.451Z,44.23
2019-03-30T16:28:47.169Z,44.00
2019-03-30T16:31:24.008Z,44.57
2019-03-30T16:33:58.065Z,45.37
2019-03-30T16:36:29.593Z,45.72
2019-03-30T16:39:01.456Z,45.62
2019-03-30T16:41:34.056Z,46.08
2019-03-30T16:44:05.007Z,46.99
2019-03-30T16:46:36.968Z,47.70
2019-03-30T16:49:09.328Z,48.02
2019-03-30T16:51:42.047Z,48.49
2019-03-30T16:54:14.128Z,48.59
2019-03-30T16:56:47.302Z,48.59
2019-03-30T16:59:19.359Z,48.97
2019-03-30T17:01:51.206Z,49.31
2019-03-30T17:04:22.140Z,50.16
2019-03-30T17:06:52.960Z,50.33
2019-03-30T17:09:23.585Z,50.05
2019-03-30T17:11:55.096Z,51.09
2019-03-30T17:14:26.048Z,51.53
2019-03-30T17:16:57.258Z,52.49
2019-03-30T17:19:28.656Z,53.26
2019-03-30T17:21:59.208Z,53.71
2019-03-30T17:24:30.176Z,54.57
2019-03-30T17:27:01.304Z,54.95
2019-03-30T17:29:36.546Z,55.53
2019-03-30T17:32:07.686Z,55.83
2019-03-30T17:34:39.017Z,56.05
2019-03-30T17:37:14.222Z,56.45
2019-03-30T17:39:46.900Z,56.83
2019-03-30T17:42:21.031Z,57.71
2019-03-30T17:44:54.807Z,58.06
2019-03-30T17:47:25.696Z,59.00
2019-03-30T17:49:58.567Z,59.12
2019-03-30T17:52:29.360Z,58.99
2019-03-30T17:55:00.875Z,60.03
2019-03-30T17:57:31.625Z,60.36
2019-03-30T18:00:10.466Z,60.77
2019-03-30T18:02:43.808Z,60.71
2019-03-30T18:05:19.036Z,60.60
2019-03-30T18:07:53.105Z,61.83
2019-03-30T18:10:35.952Z,62.07
2019-03-30T18:13:11.716Z,61.77
2019-03-30T18:15:47.937Z,61.93
2019-03-30T18:18:30.396Z,62.65
2019-03-30T18:21:08.550Z,62.81
2019-03-30T18:23:39.209Z,63.14
2019-03-30T18:26:33.758Z,63.65
2019-03-30T18:29:10.927Z,63.73
2019-03-30T18:31:54.318Z,64.40
2019-03-30T18:34:28.068Z,65.10
2019-03-30T18:37:01.224Z,65.14
2019-03-30T18:39:34.910Z,65.04
2019-03-30T18:42:10.693Z,65.83
2019-03-30T18:44:55.429Z,65.14
2019-03-30T18:47:41.550Z,65.18
2019-03-30T18:50:23.493Z,65.24
2019-03-30T18:53:04.181Z,65.70
2019-03-30T18:55:43.698Z,65.90
2019-03-30T18:58:20.293Z,66.83
2019-03-30T19:00:53.856Z,66.92
2019-03-30T19:03:34.512Z,66.91
2019-03-30T19:06:07.919Z,67.01
2019-03-30T19:08:42.356Z,67.26
2019-03-30T19:11:15.558Z,66.94
2019-03-30T19:13:52.693Z,67.23
2019-03-30T19:16:28.389Z,67.45
2019-03-30T19:19:07.813Z,68.10
2019-03-30T19:21:44.606Z,67.95
2019-03-30T19:24:25.839Z,68.67
2019-03-30T19:26:57.605Z,68.74
2019-03-30T19:29:28.813Z,69.64
2019-03-30T19:32:03.111Z,69.79
2019-03-30T19:34:34.143Z,69.18
2019-03-30T19:37:05.133Z,70.11
2019-03-30T19:39:39.685Z,70.39
2019-03-30T19:42:15.587Z,71.04
2019-03-30T19:44:49.069Z,71.16
2019-03-30T19:47:25.832Z,71.85
2019-03-30T19:49:57.669Z,71.89
2019-03-30T19:52:39.211Z,71.99
2019-03-30T19:55:01.429Z,71.76
2019-03-30T19:57:34.381Z,71.73
2019-03-30T20:04:07.907Z,72.18
2019-03-30T20:06:43.326Z,72.32
2019-03-30T20:09:21.648Z,72.72
2019-03-30T20:11:55.865Z,72.98
2019-03-30T20:14:36.324Z,73.55
2019-03-30T20:17:15.626Z,73.67
2019-03-30T20:19:53.654Z,73.46
2019-03-30T20:22:31.414Z,73.76
2019-03-30T20:25:03.846Z,74.04
2019-03-30T20:27:34.766Z,73.55
2019-03-30T20:30:12.407Z,73.97
2019-03-30T20:32:51.774Z,73.86
2019-03-30T20:35:22.727Z,74.42
2019-03-30T20:37:53.678Z,74.38
2019-03-30T20:40:27.415Z,74.14
2019-03-30T20:43:13.601Z,74.09
2019-03-30T20:45:56.062Z,74.51
2019-03-30T20:48:35.298Z,74.75
2019-03-30T20:51:31.645Z,74.92
2019-03-30T20:54:44.910Z,74.67
2019-03-30T20:57:20.766Z,75.04
2019-03-30T21:00:05.486Z,75.10
2019-03-30T21:02:55.918Z,75.51
2019-03-30T21:05:53.398Z,75.72
2019-03-30T21:08:31.366Z,76.03
2019-03-30T21:11:11.406Z,75.87
2019-03-30T21:13:43.046Z,75.76
2019-03-30T21:16:14.267Z,75.83
2019-03-30T21:19:23.215Z,76.21
2019-03-30T21:22:22.647Z,76.15
2019-03-30T21:25:03.015Z,76.41
2019-03-30T21:27:37.726Z,76.71
2019-03-30T21:30:10.536Z,76.73
2019-03-30T21:32:43.519Z,76.82
2019-03-30T21:35:20.566Z,76.78
2019-03-30T21:37:52.357Z,76.93
2019-03-30T21:40:23.063Z,77.08
2019-03-30T21:42:53.160Z,77.13
2019-03-30T21:45:26.758Z,77.44
2019-03-30T21:47:57.171Z,77.42
2019-03-30T21:50:27.445Z,77.58
2019-03-30T21:52:58.471Z,77.92
2019-03-30T21:55:28.924Z,77.89
2019-03-30T21:57:59.510Z,77.70
2019-03-30T22:00:33.130Z,77.94
2019-03-30T22:03:08.258Z,78.57
2019-03-30T22:05:40.290Z,78.08
2019-03-30T22:08:10.774Z,78.41
2019-03-30T22:10:41.446Z,78.69
2019-03-30T22:13:12.110Z,78.96
2019-03-30T22:15:42.983Z,79.31
2019-03-30T22:18:13.479Z,79.64
2019-03-30T22:20:44.149Z,79.59
2019-03-30T22:23:14.936Z,79.35
2019-03-30T22:25:45.614Z,79.08
2019-03-30T22:28:16.486Z,78.81
2019-03-30T22:30:47.564Z,79.27
2019-03-30T22:33:18.999Z,79.11
2019-03-30T22:35:53.759Z,79.18
2019-03-30T22:38:27.419Z,78.91
2019-03-30T22:40:58.277Z,79.11
2019-03-30T22:43:29.838Z,79.33
2019-03-30T22:46:00.358Z,78.70
2019-03-30T22:48:30.858Z,78.69
2019-03-30T22:51:01.282Z,78.90
2019-03-30T22:53:31.731Z,78.94
2019-03-30T22:56:02.602Z,79.11
2019-03-30T22:58:35.744Z,79.36
2019-03-30T23:01:08.447Z,79.24
2019-03-30T23:03:40.617Z,79.15
2019-03-30T23:06:14.033Z,79.49
2019-03-30T23:08:44.734Z,79.78
2019-03-30T23:11:15.851Z,79.43
2019-03-30T23:13:48.408Z,79.29
2019-03-30T23:16:19.600Z,79.41
2019-03-30T23:18:51.163Z,79.26
2019-03-30T23:21:21.842Z,79.49
2019-03-30T23:23:52.845Z,79.64
2019-03-30T23:26:23.783Z,79.32
2019-03-30T23:28:54.800Z,79.84
2019-03-30T23:31:27.565Z,79.77
2019-03-30T23:33:59.520Z,79.55
2019-03-30T23:36:31.368Z,79.59
2019-03-30T23:39:03.444Z,79.87
2019-03-30T23:41:35.884Z,79.75
2019-03-30T23:44:07.576Z,80.12
2019-03-30T23:46:39.604Z,80.20
2019-03-30T23:49:10.274Z,80.73
2019-03-30T23:51:41.807Z,80.59
2019-03-30T23:54:13.642Z,80.77
2019-03-30T23:56:45.438Z,80.92
2019-03-30T23:59:18.406Z,80.90
